sensor_id;sensor_type;location;lat;lon;timestamp;pressure;altitude;pressure_sealevel;temperature;humidity
37291;BME280;23175;-33.706;151.094;2023-04-10T00:01:20;99178.44;;;11.17;33.29
37291;BME280;23175;-33.706;151.094;2023-04-10T00:03:50;99171.02;;;12.49;30.32
37291;BME280;23175;-33.706;151.094;2023-04-10T00:06:20;99176.61;;;11.68;32.47
37291;BME280;23175;-33.706;151.094;2023-04-10T00:08:52;99178.49;;;11.91;32.33
37291;BME280;23175;-33.706;151.094;2023-04-10T00:11:22;99172.27;;;10.81;32.37
37291;BME280;23175;-33.706;151.094;2023-04-10T00:13:51;99171.84;;;12.10;30.80
37291;BME280;23175;-33.706;151.094;2023-04-10T00:16:21;99169.31;;;10.85;32.36
37291;BME280;23175;-33.706;151.094;2023-04-10T00:18:51;99172.58;;;12.86;31.11
37291;BME280;23175;-33.706;151.094;2023-04-10T00:21:21;99170.89;;;10.77;34.85
37291;BME280;23175;-33.706;151.094;2023-04-10T00:23:52;99164.65;;;10.99;33.19
37291;BME280;23175;-33.706;151.094;2023-04-10T01:11:35;99150.61;;;12.38;31.44
37291;BME280;23175;-33.706;151.094;2023-04-10T01:14:15;99152.34;;;10.78;32.78
37291;BME280;23175;-33.706;151.094;2023-04-10T01:16:52;99151.63;;;13.26;29.88
37291;BME280;23175;-33.706;151.094;2023-04-10T01:19:42;99150.73;;;11.88;31.46
37291;BME280;23175;-33.706;151.094;2023-04-10T01:22:19;99152.67;;;12.93;30.85
37291;BME280;23175;-33.706;151.094;2023-04-10T01:25:08;99146.37;;;12.39;31.57
37291;BME280;23175;-33.706;151.094;2023-04-10T01:27:57;99141.88;;;11.98;30.58
37291;BME280;23175;-33.706;151.094;2023-04-10T01:30:32;99134.94;;;13.20;29.15
37291;BME280;23175;-33.706;151.094;2023-04-10T01:33:04;99130.80;;;11.97;30.65
37291;BME280;23175;-33.706;151.094;2023-04-10T01:35:38;99129.74;;;12.52;30.14
37291;BME280;23175;-33.706;151.094;2023-04-10T01:38:10;99135.67;;;11.52;32.85
37291;BME280;23175;-33.706;151.094;2023-04-10T01:40:41;99125.14;;;11.47;31.29
37291;BME280;23175;-33.706;151.094;2023-04-10T01:43:13;99128.68;;;12.12;31.14
37291;BME280;23175;-33.706;151.094;2023-04-10T01:45:45;99129.46;;;10.98;32.71
37291;BME280;23175;-33.706;151.094;2023-04-10T01:48:17;99131.87;;;13.08;30.97
37291;BME280;23175;-33.706;151.094;2023-04-10T01:50:48;99125.17;;;13.51;28.99
37291;BME280;23175;-33.706;151.094;2023-04-10T01:53:19;99112.44;;;11.84;30.32
37291;BME280;23175;-33.706;151.094;2023-04-10T01:55:50;99110.43;;;14.21;29.99
37291;BME280;23175;-33.706;151.094;2023-04-10T01:58:21;99105.06;;;11.79;31.28
37291;BME280;23175;-33.706;151.094;2023-04-10T02:00:51;99114.28;;;13.71;30.38
37291;BME280;23175;-33.706;151.094;2023-04-10T02:03:21;99109.16;;;12.65;30.36
37291;BME280;23175;-33.706;151.094;2023-04-10T02:06:00;99098.71;;;12.11;30.76
37291;BME280;23175;-33.706;151.094;2023-04-10T02:08:38;99096.53;;;15.17;28.24
37291;BME280;23175;-33.706;151.094;2023-04-10T02:11:14;99092.02;;;13.77;28.66
37291;BME280;23175;-33.706;151.094;2023-04-10T02:13:49;99088.17;;;12.06;32.08
37291;BME280;23175;-33.706;151.094;2023-04-10T02:16:25;99094.46;;;12.68;31.14
37291;BME280;23175;-33.706;151.094;2023-04-10T02:18:56;99087.63;;;13.47;29.24
37291;BME280;23175;-33.706;151.094;2023-04-10T02:21:27;99067.56;;;14.31;28.21
37291;BME280;23175;-33.706;151.094;2023-04-10T02:23:58;99076.36;;;14.30;30.82
37291;BME280;23175;-33.706;151.094;2023-04-10T02:26:28;99070.70;;;13.00;30.55
37291;BME280;23175;-33.706;151.094;2023-04-10T02:28:58;99055.09;;;14.18;28.03
37291;BME280;23175;-33.706;151.094;2023-04-10T02:31:28;99057.61;;;14.53;28.01
37291;BME280;23175;-33.706;151.094;2023-04-10T02:33:57;99049.80;;;13.28;29.29
37291;BME280;23175;-33.706;151.094;2023-04-10T02:36:28;99050.36;;;14.83;27.86
37291;BME280;23175;-33.706;151.094;2023-04-10T02:38:57;99048.19;;;12.36;29.50
37291;BME280;23175;-33.706;151.094;2023-04-10T02:41:27;99048.37;;;13.10;28.07
37291;BME280;23175;-33.706;151.094;2023-04-10T02:43:57;99048.55;;;13.64;28.48
37291;BME280;23175;-33.706;151.094;2023-04-10T02:46:27;99036.96;;;14.92;27.02
37291;BME280;23175;-33.706;151.094;2023-04-10T02:48:57;99035.73;;;14.13;27.69
37291;BME280;23175;-33.706;151.094;2023-04-10T02:51:27;99043.03;;;11.70;30.17
37291;BME280;23175;-33.706;151.094;2023-04-10T02:53:56;99035.85;;;14.39;27.40
37291;BME280;23175;-33.706;151.094;2023-04-10T02:56:26;99030.95;;;14.67;27.05
37291;BME280;23175;-33.706;151.094;2023-04-10T02:58:56;99032.99;;;13.01;29.45
37291;BME280;23175;-33.706;151.094;2023-04-10T03:01:25;99025.38;;;14.85;27.81
37291;BME280;23175;-33.706;151.094;2023-04-10T03:04:00;99023.43;;;13.97;28.18
37291;BME280;23175;-33.706;151.094;2023-04-10T03:06:30;99028.62;;;13.58;28.58
37291;BME280;23175;-33.706;151.094;2023-04-10T03:09:00;99020.45;;;13.53;28.56
37291;BME280;23175;-33.706;151.094;2023-04-10T03:11:30;99016.24;;;13.94;27.40
37291;BME280;23175;-33.706;151.094;2023-04-10T03:14:00;99017.38;;;13.96;28.92
37291;BME280;23175;-33.706;151.094;2023-04-10T03:16:30;99015.52;;;14.31;29.83
37291;BME280;23175;-33.706;151.094;2023-04-10T03:19:00;99011.14;;;13.20;30.03
37291;BME280;23175;-33.706;151.094;2023-04-10T03:21:30;99008.16;;;13.45;28.87
37291;BME280;23175;-33.706;151.094;2023-04-10T03:23:59;99006.72;;;13.23;28.12
37291;BME280;23175;-33.706;151.094;2023-04-10T03:26:29;99002.02;;;12.59;28.75
37291;BME280;23175;-33.706;151.094;2023-04-10T03:28:59;98989.64;;;14.94;26.87
37291;BME280;23175;-33.706;151.094;2023-04-10T03:31:29;98990.00;;;14.44;27.72
37291;BME280;23175;-33.706;151.094;2023-04-10T03:33:59;98981.31;;;12.91;28.23
37291;BME280;23175;-33.706;151.094;2023-04-10T03:36:29;98980.53;;;14.36;26.14
37291;BME280;23175;-33.706;151.094;2023-04-10T03:38:59;98975.24;;;12.68;28.32
37291;BME280;23175;-33.706;151.094;2023-04-10T03:41:28;98974.90;;;12.53;28.68
37291;BME280;23175;-33.706;151.094;2023-04-10T03:43:58;98969.86;;;12.86;27.41
37291;BME280;23175;-33.706;151.094;2023-04-10T03:46:28;98963.82;;;12.77;27.65
37291;BME280;23175;-33.706;151.094;2023-04-10T03:48:57;98962.35;;;11.82;27.48
37291;BME280;23175;-33.706;151.094;2023-04-10T03:51:27;98960.13;;;15.47;25.49
37291;BME280;23175;-33.706;151.094;2023-04-10T03:53:57;98958.69;;;14.82;24.66
37291;BME280;23175;-33.706;151.094;2023-04-10T03:56:27;98963.53;;;12.35;26.58
37291;BME280;23175;-33.706;151.094;2023-04-10T03:58:57;98965.28;;;12.87;27.30
37291;BME280;23175;-33.706;151.094;2023-04-10T04:01:27;98968.95;;;12.68;26.94
37291;BME280;23175;-33.706;151.094;2023-04-10T04:03:56;98964.83;;;14.66;27.30
37291;BME280;23175;-33.706;151.094;2023-04-10T04:06:26;98960.73;;;13.27;26.55
37291;BME280;23175;-33.706;151.094;2023-04-10T04:08:57;98964.42;;;12.51;28.12
37291;BME280;23175;-33.706;151.094;2023-04-10T04:11:27;98962.85;;;14.25;26.37
37291;BME280;23175;-33.706;151.094;2023-04-10T04:13:56;98956.69;;;13.22;27.65
37291;BME280;23175;-33.706;151.094;2023-04-10T04:16:26;98956.38;;;13.68;25.69
37291;BME280;23175;-33.706;151.094;2023-04-10T04:18:56;98957.48;;;14.29;26.51
37291;BME280;23175;-33.706;151.094;2023-04-10T04:21:25;98958.34;;;15.85;25.19
37291;BME280;23175;-33.706;151.094;2023-04-10T04:24:00;98958.22;;;16.64;24.34
37291;BME280;23175;-33.706;151.094;2023-04-10T04:26:31;98962.61;;;13.33;25.83
37291;BME280;23175;-33.706;151.094;2023-04-10T04:29:02;98957.61;;;14.45;24.74
37291;BME280;23175;-33.706;151.094;2023-04-10T04:31:32;98956.37;;;14.70;24.72
37291;BME280;23175;-33.706;151.094;2023-04-10T04:34:02;98964.05;;;14.79;25.61
37291;BME280;23175;-33.706;151.094;2023-04-10T04:36:32;98968.15;;;15.67;24.15
37291;BME280;23175;-33.706;151.094;2023-04-10T04:39:02;98971.46;;;14.96;25.19
37291;BME280;23175;-33.706;151.094;2023-04-10T04:41:32;98967.61;;;15.24;25.55
37291;BME280;23175;-33.706;151.094;2023-04-10T04:44:03;98962.32;;;15.65;24.31
37291;BME280;23175;-33.706;151.094;2023-04-10T04:46:34;98959.31;;;15.06;25.09
37291;BME280;23175;-33.706;151.094;2023-04-10T04:49:05;98959.65;;;15.42;24.67
37291;BME280;23175;-33.706;151.094;2023-04-10T04:51:35;98970.87;;;13.42;26.85
37291;BME280;23175;-33.706;151.094;2023-04-10T04:54:05;98958.55;;;12.89;25.95
37291;BME280;23175;-33.706;151.094;2023-04-10T04:56:36;98958.44;;;17.32;22.28
37291;BME280;23175;-33.706;151.094;2023-04-10T04:59:05;98964.04;;;15.73;24.06
37291;BME280;23175;-33.706;151.094;2023-04-10T05:01:35;98966.48;;;13.39;25.03
37291;BME280;23175;-33.706;151.094;2023-04-10T05:04:05;98969.28;;;16.34;22.90
37291;BME280;23175;-33.706;151.094;2023-04-10T05:06:35;98964.29;;;13.80;24.15
37291;BME280;23175;-33.706;151.094;2023-04-10T05:09:06;98963.64;;;14.18;23.90
37291;BME280;23175;-33.706;151.094;2023-04-10T05:11:35;98968.06;;;12.90;25.20
37291;BME280;23175;-33.706;151.094;2023-04-10T05:14:06;98966.27;;;14.23;22.94
37291;BME280;23175;-33.706;151.094;2023-04-10T05:16:36;98967.75;;;14.23;23.63
37291;BME280;23175;-33.706;151.094;2023-04-10T05:19:06;98960.15;;;16.02;21.76
37291;BME280;23175;-33.706;151.094;2023-04-10T05:21:35;98954.58;;;15.13;22.41
37291;BME280;23175;-33.706;151.094;2023-04-10T05:24:06;98963.92;;;13.81;24.18
37291;BME280;23175;-33.706;151.094;2023-04-10T05:26:36;98962.91;;;13.78;23.31
37291;BME280;23175;-33.706;151.094;2023-04-10T05:29:07;98967.57;;;14.12;24.03
37291;BME280;23175;-33.706;151.094;2023-04-10T05:31:37;98970.00;;;13.28;23.09
37291;BME280;23175;-33.706;151.094;2023-04-10T05:34:07;98967.84;;;14.11;22.44
37291;BME280;23175;-33.706;151.094;2023-04-10T05:36:37;98970.71;;;12.88;24.38
37291;BME280;23175;-33.706;151.094;2023-04-10T05:39:07;98976.50;;;12.89;24.85
37291;BME280;23175;-33.706;151.094;2023-04-10T05:41:37;98967.77;;;15.08;22.32
37291;BME280;23175;-33.706;151.094;2023-04-10T05:44:07;98973.57;;;16.97;21.29
37291;BME280;23175;-33.706;151.094;2023-04-10T05:46:37;98978.91;;;13.95;23.77
37291;BME280;23175;-33.706;151.094;2023-04-10T05:49:07;98980.60;;;13.16;23.71
37291;BME280;23175;-33.706;151.094;2023-04-10T05:51:37;98986.15;;;14.17;22.97
37291;BME280;23175;-33.706;151.094;2023-04-10T05:54:08;98980.77;;;13.46;24.00
37291;BME280;23175;-33.706;151.094;2023-04-10T05:56:37;98984.51;;;15.04;22.80
37291;BME280;23175;-33.706;151.094;2023-04-10T05:59:07;98985.13;;;13.26;25.25
37291;BME280;23175;-33.706;151.094;2023-04-10T06:01:37;98988.31;;;15.72;23.19
37291;BME280;23175;-33.706;151.094;2023-04-10T06:04:08;98990.46;;;14.64;24.27
37291;BME280;23175;-33.706;151.094;2023-04-10T06:06:38;98993.38;;;14.05;24.93
37291;BME280;23175;-33.706;151.094;2023-04-10T06:09:08;98992.72;;;13.59;24.48
37291;BME280;23175;-33.706;151.094;2023-04-10T06:11:38;98990.91;;;16.04;24.12
37291;BME280;23175;-33.706;151.094;2023-04-10T06:14:08;98995.49;;;13.09;25.45
37291;BME280;23175;-33.706;151.094;2023-04-10T06:16:38;98998.95;;;13.86;25.17
37291;BME280;23175;-33.706;151.094;2023-04-10T06:19:09;98995.79;;;14.16;24.35
37291;BME280;23175;-33.706;151.094;2023-04-10T06:21:40;98990.31;;;13.45;23.90
37291;BME280;23175;-33.706;151.094;2023-04-10T06:24:10;98992.10;;;14.24;23.98
37291;BME280;23175;-33.706;151.094;2023-04-10T08:31:11;99186.40;;;15.46;31.25
37291;BME280;23175;-33.706;151.094;2023-04-10T08:33:41;99190.49;;;15.93;30.68
37291;BME280;23175;-33.706;151.094;2023-04-10T08:36:11;99192.58;;;16.05;30.02
37291;BME280;23175;-33.706;151.094;2023-04-10T08:38:42;99194.66;;;13.63;32.25
37291;BME280;23175;-33.706;151.094;2023-04-10T08:41:13;99196.77;;;15.67;30.29
37291;BME280;23175;-33.706;151.094;2023-04-10T08:43:43;99194.97;;;16.35;29.52
37291;BME280;23175;-33.706;151.094;2023-04-10T08:46:13;99196.83;;;15.72;29.89
37291;BME280;23175;-33.706;151.094;2023-04-10T08:48:46;99202.63;;;16.18;29.84
37291;BME280;23175;-33.706;151.094;2023-04-10T08:51:19;99203.21;;;16.39;30.31
37291;BME280;23175;-33.706;151.094;2023-04-10T08:53:53;99208.67;;;16.22;29.50
37291;BME280;23175;-33.706;151.094;2023-04-10T08:56:25;99212.36;;;16.51;30.55
37291;BME280;23175;-33.706;151.094;2023-04-10T08:58:56;99214.17;;;16.75;29.95
37291;BME280;23175;-33.706;151.094;2023-04-10T09:01:31;99213.05;;;16.43;29.86
37291;BME280;23175;-33.706;151.094;2023-04-10T09:04:01;99218.10;;;16.13;30.75
37291;BME280;23175;-33.706;151.094;2023-04-10T09:06:31;99223.98;;;16.54;30.80
37291;BME280;23175;-33.706;151.094;2023-04-10T09:09:02;99229.90;;;16.56;30.35
37291;BME280;23175;-33.706;151.094;2023-04-10T09:12:04;99237.18;;;16.37;30.14
37291;BME280;23175;-33.706;151.094;2023-04-10T09:14:35;99241.23;;;16.31;30.65
37291;BME280;23175;-33.706;151.094;2023-04-10T09:17:15;99244.62;;;16.45;30.78
37291;BME280;23175;-33.706;151.094;2023-04-10T09:19:47;99246.69;;;15.50;30.55
37291;BME280;23175;-33.706;151.094;2023-04-10T09:22:17;99249.28;;;16.45;30.09
37291;BME280;23175;-33.706;151.094;2023-04-10T09:24:48;99254.64;;;15.81;31.33
37291;BME280;23175;-33.706;151.094;2023-04-10T09:27:35;99258.46;;;15.41;31.61
37291;BME280;23175;-33.706;151.094;2023-04-10T09:30:06;99258.48;;;15.71;31.07
37291;BME280;23175;-33.706;151.094;2023-04-10T09:32:39;99262.18;;;15.90;31.24
37291;BME280;23175;-33.706;151.094;2023-04-10T09:35:11;99265.35;;;15.44;32.24
37291;BME280;23175;-33.706;151.094;2023-04-10T09:37:45;99266.16;;;15.45;32.38
37291;BME280;23175;-33.706;151.094;2023-04-10T09:40:24;99271.36;;;12.32;35.57
37291;BME280;23175;-33.706;151.094;2023-04-10T09:42:55;99274.55;;;11.17;36.85
37291;BME280;23175;-33.706;151.094;2023-04-10T09:45:25;99277.01;;;13.62;35.00
37291;BME280;23175;-33.706;151.094;2023-04-10T09:48:04;99279.28;;;14.03;34.43
37291;BME280;23175;-33.706;151.094;2023-04-10T09:50:38;99282.67;;;14.32;34.87
37291;BME280;23175;-33.706;151.094;2023-04-10T09:53:12;99291.36;;;11.29;38.69
37291;BME280;23175;-33.706;151.094;2023-04-10T09:55:43;99293.02;;;14.61;35.28
37291;BME280;23175;-33.706;151.094;2023-04-10T09:58:14;99294.52;;;14.41;35.75
37291;BME280;23175;-33.706;151.094;2023-04-10T10:00:47;99294.83;;;14.30;35.28
37291;BME280;23175;-33.706;151.094;2023-04-10T10:03:18;99293.56;;;13.83;35.03
37291;BME280;23175;-33.706;151.094;2023-04-10T10:05:50;99298.83;;;15.03;34.21
37291;BME280;23175;-33.706;151.094;2023-04-10T10:08:20;99299.31;;;14.82;33.56
37291;BME280;23175;-33.706;151.094;2023-04-10T10:10:54;99302.85;;;15.24;32.88
37291;BME280;23175;-33.706;151.094;2023-04-10T10:13:30;99304.80;;;15.11;33.85
37291;BME280;23175;-33.706;151.094;2023-04-10T10:16:10;99306.70;;;14.63;34.39
37291;BME280;23175;-33.706;151.094;2023-04-10T10:18:46;99306.16;;;15.00;34.63
37291;BME280;23175;-33.706;151.094;2023-04-10T10:21:20;99306.63;;;15.53;33.83
37291;BME280;23175;-33.706;151.094;2023-04-10T10:23:51;99306.55;;;14.86;34.46
37291;BME280;23175;-33.706;151.094;2023-04-10T10:26:21;99310.11;;;15.39;34.48
37291;BME280;23175;-33.706;151.094;2023-04-10T10:28:52;99310.03;;;14.27;35.22
37291;BME280;23175;-33.706;151.094;2023-04-10T10:31:24;99312.03;;;14.69;34.51
37291;BME280;23175;-33.706;151.094;2023-04-10T10:33:56;99315.42;;;15.18;33.74
37291;BME280;23175;-33.706;151.094;2023-04-10T10:36:26;99312.35;;;14.80;34.09
37291;BME280;23175;-33.706;151.094;2023-04-10T10:39:07;99315.08;;;15.10;34.48
37291;BME280;23175;-33.706;151.094;2023-04-10T10:41:47;99321.18;;;15.29;33.94
37291;BME280;23175;-33.706;151.094;2023-04-10T10:44:25;99326.24;;;14.79;34.02
37291;BME280;23175;-33.706;151.094;2023-04-10T10:47:09;99324.33;;;14.95;34.03
37291;BME280;23175;-33.706;151.094;2023-04-10T10:50:00;99328.01;;;10.64;38.60
37291;BME280;23175;-33.706;151.094;2023-04-10T10:52:47;99326.43;;;13.75;35.51
37291;BME280;23175;-33.706;151.094;2023-04-10T10:55:33;99328.86;;;14.76;34.34
37291;BME280;23175;-33.706;151.094;2023-04-10T10:58:05;99330.44;;;14.42;34.97
37291;BME280;23175;-33.706;151.094;2023-04-10T11:01:24;99329.84;;;14.73;34.87
37291;BME280;23175;-33.706;151.094;2023-04-10T11:03:54;99326.67;;;14.49;34.99
37291;BME280;23175;-33.706;151.094;2023-04-10T11:06:50;99330.70;;;13.43;37.02
37291;BME280;23175;-33.706;151.094;2023-04-10T11:09:53;99334.87;;;12.37;37.82
37291;BME280;23175;-33.706;151.094;2023-04-10T11:12:24;99331.81;;;14.49;35.93
37291;BME280;23175;-33.706;151.094;2023-04-10T11:15:02;99337.61;;;12.81;37.90
37291;BME280;23175;-33.706;151.094;2023-04-10T11:18:04;99336.15;;;13.67;37.19
37291;BME280;23175;-33.706;151.094;2023-04-10T11:21:08;99333.39;;;14.30;36.71
37291;BME280;23175;-33.706;151.094;2023-04-10T11:24:01;99340.07;;;11.00;40.30
37291;BME280;23175;-33.706;151.094;2023-04-10T11:26:38;99335.17;;;12.07;38.17
37291;BME280;23175;-33.706;151.094;2023-04-10T11:29:34;99337.85;;;12.30;38.01
37291;BME280;23175;-33.706;151.094;2023-04-10T11:32:04;99335.08;;;14.20;35.95
37291;BME280;23175;-33.706;151.094;2023-04-10T11:34:35;99338.77;;;13.43;36.72
37291;BME280;23175;-33.706;151.094;2023-04-10T11:37:22;99337.01;;;14.15;36.60
37291;BME280;23175;-33.706;151.094;2023-04-10T11:40:04;99340.43;;;11.88;38.46
37291;BME280;23175;-33.706;151.094;2023-04-10T11:42:35;99339.84;;;14.13;36.06
37291;BME280;23175;-33.706;151.094;2023-04-10T11:45:27;99339.51;;;14.42;37.11
37291;BME280;23175;-33.706;151.094;2023-04-10T11:47:57;99344.97;;;13.92;36.71
37291;BME280;23175;-33.706;151.094;2023-04-10T11:50:29;99342.65;;;13.71;37.04
37291;BME280;23175;-33.706;151.094;2023-04-10T11:52:58;99343.91;;;14.19;35.72
37291;BME280;23175;-33.706;151.094;2023-04-10T11:55:37;99342.01;;;14.35;35.26
37291;BME280;23175;-33.706;151.094;2023-04-10T11:58:22;99344.01;;;13.96;35.66
37291;BME280;23175;-33.706;151.094;2023-04-10T12:01:07;99344.78;;;13.89;35.85
37291;BME280;23175;-33.706;151.094;2023-04-10T12:03:39;99347.51;;;13.08;37.13
37291;BME280;23175;-33.706;151.094;2023-04-10T12:06:12;99342.50;;;14.48;36.32
37291;BME280;23175;-33.706;151.094;2023-04-10T12:08:43;99341.76;;;13.95;36.77
37291;BME280;23175;-33.706;151.094;2023-04-10T12:11:16;99340.00;;;14.20;35.87
37291;BME280;23175;-33.706;151.094;2023-04-10T12:13:47;99337.58;;;14.05;36.16
37291;BME280;23175;-33.706;151.094;2023-04-10T12:16:17;99337.16;;;14.37;35.81
37291;BME280;23175;-33.706;151.094;2023-04-10T12:18:49;99332.01;;;14.68;35.56
37291;BME280;23175;-33.706;151.094;2023-04-10T12:21:19;99330.90;;;14.08;35.67
37291;BME280;23175;-33.706;151.094;2023-04-10T12:23:49;99332.36;;;14.07;36.52
37291;BME280;23175;-33.706;151.094;2023-04-10T12:26:19;99335.37;;;14.27;36.35
37291;BME280;23175;-33.706;151.094;2023-04-10T12:28:52;99336.21;;;14.70;35.92
37291;BME280;23175;-33.706;151.094;2023-04-10T12:31:29;99337.19;;;14.72;35.61
37291;BME280;23175;-33.706;151.094;2023-04-10T12:34:00;99336.14;;;14.04;36.09
37291;BME280;23175;-33.706;151.094;2023-04-10T12:36:32;99336.44;;;13.97;36.14
37291;BME280;23175;-33.706;151.094;2023-04-10T12:39:03;99336.68;;;14.00;36.22
37291;BME280;23175;-33.706;151.094;2023-04-10T12:41:35;99337.14;;;14.20;36.16
37291;BME280;23175;-33.706;151.094;2023-04-10T12:44:11;99334.02;;;13.68;36.08
37291;BME280;23175;-33.706;151.094;2023-04-10T12:46:42;99335.64;;;13.27;37.84
37291;BME280;23175;-33.706;151.094;2023-04-10T12:49:13;99333.49;;;14.09;37.03
37291;BME280;23175;-33.706;151.094;2023-04-10T12:51:46;99329.12;;;13.52;36.68
37291;BME280;23175;-33.706;151.094;2023-04-10T12:54:36;99330.88;;;13.75;36.45
37291;BME280;23175;-33.706;151.094;2023-04-10T12:57:07;99328.56;;;12.99;37.26
37291;BME280;23175;-33.706;151.094;2023-04-10T12:59:37;99333.85;;;12.28;38.98
37291;BME280;23175;-33.706;151.094;2023-04-10T13:02:10;99330.78;;;13.28;37.21
37291;BME280;23175;-33.706;151.094;2023-04-10T13:04:41;99327.93;;;13.27;37.75
37291;BME280;23175;-33.706;151.094;2023-04-10T13:07:11;99327.65;;;13.58;37.54
37291;BME280;23175;-33.706;151.094;2023-04-10T13:09:41;99327.54;;;13.46;37.90
37291;BME280;23175;-33.706;151.094;2023-04-10T13:12:12;99324.48;;;12.84;38.22
37291;BME280;23175;-33.706;151.094;2023-04-10T13:14:43;99322.48;;;13.25;37.83
37291;BME280;23175;-33.706;151.094;2023-04-10T13:17:19;99319.28;;;13.50;37.88
37291;BME280;23175;-33.706;151.094;2023-04-10T13:19:49;99319.48;;;13.54;38.06
37291;BME280;23175;-33.706;151.094;2023-04-10T13:22:19;99315.08;;;13.29;38.13
37291;BME280;23175;-33.706;151.094;2023-04-10T13:24:50;99315.11;;;13.16;38.00
37291;BME280;23175;-33.706;151.094;2023-04-10T13:27:20;99312.53;;;13.25;38.47
37291;BME280;23175;-33.706;151.094;2023-04-10T13:29:50;99313.28;;;13.62;38.11
37291;BME280;23175;-33.706;151.094;2023-04-10T13:32:20;99312.41;;;13.01;38.83
37291;BME280;23175;-33.706;151.094;2023-04-10T13:34:51;99304.72;;;13.25;38.38
37291;BME280;23175;-33.706;151.094;2023-04-10T13:37:22;99304.27;;;11.94;40.03
37291;BME280;23175;-33.706;151.094;2023-04-10T13:39:53;99301.94;;;12.72;39.53
37291;BME280;23175;-33.706;151.094;2023-04-10T13:42:23;99306.08;;;12.63;39.58
37291;BME280;23175;-33.706;151.094;2023-04-10T13:44:53;99305.68;;;12.71;39.34
37291;BME280;23175;-33.706;151.094;2023-04-10T13:47:24;99308.68;;;13.22;39.14
37291;BME280;23175;-33.706;151.094;2023-04-10T13:49:54;99303.83;;;13.60;38.62
37291;BME280;23175;-33.706;151.094;2023-04-10T13:52:23;99300.04;;;13.20;38.73
37291;BME280;23175;-33.706;151.094;2023-04-10T13:54:54;99298.81;;;13.44;38.34
37291;BME280;23175;-33.706;151.094;2023-04-10T13:57:25;99298.21;;;13.27;38.89
37291;BME280;23175;-33.706;151.094;2023-04-10T13:59:56;99295.13;;;13.30;38.88
37291;BME280;23175;-33.706;151.094;2023-04-10T14:02:26;99293.52;;;13.20;38.68
37291;BME280;23175;-33.706;151.094;2023-04-10T14:04:57;99290.07;;;13.14;38.75
37291;BME280;23175;-33.706;151.094;2023-04-10T14:07:26;99289.17;;;13.01;39.16
37291;BME280;23175;-33.706;151.094;2023-04-10T14:09:56;99286.10;;;13.51;38.59
37291;BME280;23175;-33.706;151.094;2023-04-10T14:12:28;99284.99;;;13.02;38.98
37291;BME280;23175;-33.706;151.094;2023-04-10T14:15:00;99282.66;;;13.08;38.51
37291;BME280;23175;-33.706;151.094;2023-04-10T14:17:32;99283.64;;;12.65;39.13
37291;BME280;23175;-33.706;151.094;2023-04-10T14:20:02;99283.24;;;12.55;39.94
37291;BME280;23175;-33.706;151.094;2023-04-10T14:22:32;99282.18;;;12.91;39.24
37291;BME280;23175;-33.706;151.094;2023-04-10T14:25:04;99282.52;;;12.72;39.43
37291;BME280;23175;-33.706;151.094;2023-04-10T14:27:36;99281.89;;;13.17;39.15
37291;BME280;23175;-33.706;151.094;2023-04-10T14:30:08;99274.83;;;13.19;39.48
37291;BME280;23175;-33.706;151.094;2023-04-10T14:32:41;99276.08;;;13.12;39.48
37291;BME280;23175;-33.706;151.094;2023-04-10T14:35:12;99279.57;;;13.55;38.98
37291;BME280;23175;-33.706;151.094;2023-04-10T14:38:45;99288.22;;;12.88;39.45
37291;BME280;23175;-33.706;151.094;2023-04-10T14:41:16;99290.76;;;12.96;38.94
37291;BME280;23175;-33.706;151.094;2023-04-10T14:43:47;99290.62;;;12.93;39.42
37291;BME280;23175;-33.706;151.094;2023-04-10T14:46:18;99292.13;;;12.69;40.08
37291;BME280;23175;-33.706;151.094;2023-04-10T14:48:48;99291.21;;;12.41;39.91
37291;BME280;23175;-33.706;151.094;2023-04-10T14:51:21;99291.73;;;12.45;39.72
37291;BME280;23175;-33.706;151.094;2023-04-10T14:53:54;99291.54;;;12.27;40.50
37291;BME280;23175;-33.706;151.094;2023-04-10T14:56:26;99291.31;;;12.32;40.28
37291;BME280;23175;-33.706;151.094;2023-04-10T14:58:56;99289.56;;;13.09;40.22
37291;BME280;23175;-33.706;151.094;2023-04-10T15:01:26;99289.45;;;12.45;39.90
37291;BME280;23175;-33.706;151.094;2023-04-10T15:03:58;99291.26;;;13.05;40.05
37291;BME280;23175;-33.706;151.094;2023-04-10T15:06:28;99287.93;;;12.10;40.73
37291;BME280;23175;-33.706;151.094;2023-04-10T15:08:58;99287.12;;;12.76;39.88
37291;BME280;23175;-33.706;151.094;2023-04-10T15:11:29;99285.41;;;13.09;39.78
37291;BME280;23175;-33.706;151.094;2023-04-10T15:14:03;99285.75;;;12.57;39.84
37291;BME280;23175;-33.706;151.094;2023-04-10T15:16:36;99283.67;;;12.47;40.16
37291;BME280;23175;-33.706;151.094;2023-04-10T15:19:06;99281.75;;;12.89;39.72
37291;BME280;23175;-33.706;151.094;2023-04-10T15:21:37;99280.62;;;11.94;40.79
37291;BME280;23175;-33.706;151.094;2023-04-10T15:24:08;99278.57;;;12.71;40.22
37291;BME280;23175;-33.706;151.094;2023-04-10T15:26:44;99275.35;;;12.43;40.10
37291;BME280;23175;-33.706;151.094;2023-04-10T15:29:15;99273.93;;;12.66;40.85
37291;BME280;23175;-33.706;151.094;2023-04-10T15:31:46;99273.33;;;12.64;40.23
37291;BME280;23175;-33.706;151.094;2023-04-10T15:34:15;99273.15;;;12.82;40.13
37291;BME280;23175;-33.706;151.094;2023-04-10T15:36:45;99272.24;;;11.00;42.87
37291;BME280;23175;-33.706;151.094;2023-04-10T15:39:15;99268.68;;;12.19;40.50
37291;BME280;23175;-33.706;151.094;2023-04-10T15:41:46;99266.21;;;12.70;40.24
37291;BME280;23175;-33.706;151.094;2023-04-10T15:44:17;99268.14;;;12.33;40.56
37291;BME280;23175;-33.706;151.094;2023-04-10T15:46:48;99267.16;;;12.68;40.42
37291;BME280;23175;-33.706;151.094;2023-04-10T15:49:18;99268.10;;;12.54;40.07